Time;durP1;ratioP1;P1;durP2;ratioP2;P2;SDS_P1;SDS_P2;PMS_P1;PMS_P2;Temp;Humidity;BMP_temperature;BMP_pressure;BME280_temperature;BME280_humidity;BME280_pressure;Samples;Min_cycle;Max_cycle;Signal;HPM_P1;HPM_P2
2021/12/08 00:01:26;;;;;;;2.73;2.53;;;6.70;53.70;;;;;;5042093;28;20525;-86
2021/12/08 00:03:54;;;;;;;3.00;2.27;;;6.60;54.00;;;;;;5067455;28;20480;-86
2021/12/08 00:06:22;;;;;;;4.83;2.37;;;6.60;54.10;;;;;;5010514;28;20481;-86
2021/12/08 00:09:03;;;;;;;3.50;2.50;;;6.60;54.20;;;;;;5065623;28;20444;-87
2021/12/08 00:14:16;;;;;;;4.10;2.70;;;6.50;54.30;;;;;;5037741;28;20449;-87
2021/12/08 00:16:43;;;;;;;6.67;2.60;;;6.60;54.20;;;;;;5043393;28;20472;-87
2021/12/08 00:19:10;;;;;;;11.47;2.27;;;6.60;53.90;;;;;;5037879;28;20489;-87
2021/12/08 00:21:37;;;;;;;5.07;3.10;;;6.70;53.90;;;;;;5064692;28;20465;-87
2021/12/08 00:24:07;;;;;;;3.10;2.50;;;6.70;53.80;;;;;;5042925;28;20456;-87
2021/12/08 00:26:35;;;;;;;3.00;2.50;;;6.90;53.70;;;;;;5065144;28;21121;-87
2021/12/08 00:29:04;;;;;;;2.13;1.93;;;7.00;53.30;;;;;;5033682;28;20948;-87
2021/12/08 00:31:31;;;;;;;3.00;2.20;;;7.00;53.30;;;;;;5047425;28;20459;-87
2021/12/08 00:33:58;;;;;;;2.30;2.07;;;7.00;52.90;;;;;;5045241;28;20452;-87
2021/12/08 00:36:31;;;;;;;6.63;2.30;;;7.00;52.50;;;;;;5045307;28;20526;-87
2021/12/08 00:38:58;;;;;;;4.33;2.93;;;7.00;52.50;;;;;;5044104;28;20472;-87
2021/12/08 00:41:26;;;;;;;3.13;2.10;;;7.00;52.70;;;;;;5045788;28;20477;-87
2021/12/08 00:43:53;;;;;;;4.40;2.20;;;6.70;52.30;;;;;;5045804;28;20467;-86
2021/12/08 00:46:20;;;;;;;3.27;2.50;;;6.60;53.10;;;;;;5058687;28;20440;-85
2021/12/08 00:48:49;;;;;;;2.53;2.33;;;6.70;52.60;;;;;;5032303;28;20482;-86
2021/12/08 00:51:17;;;;;;;1.73;1.50;;;6.50;52.60;;;;;;5066600;28;20460;-87
2021/12/08 00:53:45;;;;;;;3.30;1.83;;;6.50;52.90;;;;;;5050618;28;20448;-87
2021/12/08 00:56:12;;;;;;;1.97;1.83;;;6.80;53.40;;;;;;5063766;28;20457;-87
2021/12/08 00:58:41;;;;;;;4.50;1.90;;;6.50;52.40;;;;;;5044750;28;20493;-87
2021/12/08 01:01:08;;;;;;;8.80;2.20;;;6.40;53.10;;;;;;5030305;28;20448;-87
2021/12/08 01:03:36;;;;;;;3.67;2.10;;;6.60;53.00;;;;;;5032922;28;20457;-87
2021/12/08 01:06:05;;;;;;;1.87;1.77;;;6.90;52.90;;;;;;5056516;28;20450;-86
2021/12/08 01:08:33;;;;;;;2.53;1.63;;;7.00;52.10;;;;;;5064650;28;20480;-87
2021/12/08 01:11:07;;;;;;;5.97;2.30;;;7.10;51.80;;;;;;5064658;28;20436;-87
2021/12/08 01:13:34;;;;;;;1.83;1.67;;;7.10;51.80;;;;;;5046170;28;20540;-87
2021/12/08 01:16:03;;;;;;;1.80;1.70;;;7.10;51.80;;;;;;5065365;28;20541;-86
2021/12/08 01:18:32;;;;;;;3.20;2.87;;;7.20;51.90;;;;;;5044679;28;20560;-87
2021/12/08 01:21:01;;;;;;;4.87;2.40;;;7.20;51.40;;;;;;5048907;28;20546;-87
2021/12/08 01:23:29;;;;;;;9.37;3.13;;;7.40;51.90;;;;;;5065075;28;20494;-87
2021/12/08 01:25:56;;;;;;;7.37;3.47;;;7.50;52.00;;;;;;5043302;28;20444;-87
2021/12/08 01:28:25;;;;;;;3.53;2.70;;;7.40;52.90;;;;;;5064503;28;20461;-87
2021/12/08 01:30:54;;;;;;;4.00;3.10;;;7.50;53.10;;;;;;5048180;28;20474;-87
2021/12/08 01:33:23;;;;;;;3.20;2.50;;;7.50;52.90;;;;;;5042832;28;21279;-85
2021/12/08 01:35:50;;;;;;;4.20;3.33;;;7.50;52.60;;;;;;5041837;28;21222;-87
2021/12/08 01:38:18;;;;;;;3.40;2.90;;;7.40;52.80;;;;;;5046265;28;20468;-87
2021/12/08 01:40:45;;;;;;;9.33;3.63;;;7.40;53.10;;;;;;5041279;28;20457;-87
2021/12/08 01:43:24;;;;;;;7.50;4.00;;;7.50;53.30;;;;;;5042068;28;20541;-87
2021/12/08 01:45:58;;;;;;;8.77;3.23;;;7.60;53.50;;;;;;5042892;28;20866;-87
2021/12/08 01:48:27;;;;;;;2.80;2.60;;;7.70;53.70;;;;;;5062579;28;20547;-87
2021/12/08 01:50:58;;;;;;;6.00;2.83;;;7.80;53.30;;;;;;5044170;28;20453;-87
2021/12/08 01:53:25;;;;;;;4.53;2.80;;;7.80;53.30;;;;;;5057357;28;20450;-87
2021/12/08 01:55:52;;;;;;;8.37;2.70;;;7.80;53.10;;;;;;5043631;28;20547;-87
2021/12/08 01:58:20;;;;;;;6.60;2.63;;;7.90;53.10;;;;;;5040961;28;20472;-87
2021/12/08 02:00:51;;;;;;;2.13;1.70;;;7.90;53.00;;;;;;5045826;28;20453;-87
2021/12/08 02:03:22;;;;;;;2.43;1.90;;;7.90;53.20;;;;;;5058275;28;20542;-85
2021/12/08 02:05:51;;;;;;;3.23;1.80;;;8.00;53.30;;;;;;5023125;28;20463;-87
2021/12/08 02:08:18;;;;;;;4.67;2.43;;;8.00;53.20;;;;;;5048695;28;20470;-87
2021/12/08 02:10:45;;;;;;;5.60;1.80;;;7.80;51.20;;;;;;5048713;28;20449;-87
2021/12/08 02:13:13;;;;;;;2.43;2.17;;;7.60;51.70;;;;;;5049620;28;20451;-87
2021/12/08 02:15:41;;;;;;;6.30;2.43;;;7.50;52.60;;;;;;5019490;28;20467;-87
2021/12/08 02:18:13;;;;;;;6.50;2.07;;;7.70;53.30;;;;;;5037162;28;20570;-87
2021/12/08 02:20:42;;;;;;;4.63;2.53;;;7.50;52.80;;;;;;5054510;28;20987;-88
2021/12/08 02:23:11;;;;;;;5.23;1.97;;;7.60;53.30;;;;;;5038112;28;20463;-86
2021/12/08 02:25:38;;;;;;;2.53;1.70;;;7.50;53.20;;;;;;5069058;28;20480;-88
2021/12/08 02:28:08;;;;;;;2.23;1.60;;;7.50;53.40;;;;;;5062680;28;20513;-87
2021/12/08 02:30:41;;;;;;;1.70;1.60;;;7.50;53.70;;;;;;5044372;28;20468;-87
2021/12/08 02:48:16;;;;;;;1.53;1.40;;;7.50;55.50;;;;;;5062432;28;20471;-86
2021/12/08 02:50:44;;;;;;;1.87;1.40;;;7.60;55.50;;;;;;5051714;28;20510;-86
2021/12/08 02:53:14;;;;;;;2.23;1.90;;;7.70;55.40;;;;;;5044289;28;20461;-87
2021/12/08 02:55:44;;;;;;;3.90;2.17;;;7.70;55.10;;;;;;5053071;28;20452;-85
2021/12/08 02:58:12;;;;;;;1.97;1.80;;;7.70;54.80;;;;;;5040408;28;20450;-87
2021/12/08 03:00:42;;;;;;;3.67;1.53;;;7.60;55.10;;;;;;5067607;28;20811;-87
2021/12/08 03:03:09;;;;;;;1.73;1.63;;;7.50;55.10;;;;;;5048097;28;20786;-86
2021/12/08 03:05:36;;;;;;;1.63;1.40;;;7.40;55.50;;;;;;5064470;28;20438;-87
2021/12/08 03:08:06;;;;;;;4.50;1.73;;;7.40;55.70;;;;;;5063540;28;20480;-87
2021/12/08 03:10:37;;;;;;;1.60;1.50;;;7.30;55.90;;;;;;5063360;28;20454;-87
2021/12/08 03:13:07;;;;;;;3.80;2.33;;;7.40;56.10;;;;;;5024923;28;20482;-86
2021/12/08 03:15:34;;;;;;;3.30;2.60;;;7.50;56.10;;;;;;5055119;28;20632;-86
2021/12/08 03:18:01;;;;;;;5.37;2.60;;;7.50;56.10;;;;;;5043975;28;20462;-87
2021/12/08 03:20:38;;;;;;;4.33;2.77;;;7.50;56.10;;;;;;5048285;28;20471;-84
2021/12/08 03:23:06;;;;;;;2.33;1.90;;;7.50;56.00;;;;;;5071825;28;20479;-87
2021/12/08 03:25:37;;;;;;;11.40;3.83;;;7.40;55.90;;;;;;5070053;28;20449;-86
2021/12/08 03:28:12;;;;;;;5.77;3.70;;;7.40;56.10;;;;;;5073614;28;20479;-87
2021/12/08 03:30:52;;;;;;;5.57;3.40;;;7.30;56.40;;;;;;5048882;28;20947;-88
2021/12/08 03:33:19;;;;;;;3.70;2.13;;;7.40;56.70;;;;;;5044477;28;20465;-87
2021/12/08 03:35:46;;;;;;;2.80;2.30;;;7.30;56.80;;;;;;5032849;28;20480;-87
2021/12/08 03:38:13;;;;;;;1.90;1.70;;;7.20;57.00;;;;;;5042299;28;21010;-87
2021/12/08 03:40:40;;;;;;;2.03;1.83;;;7.20;57.10;;;;;;5052438;28;20491;-87
2021/12/08 03:43:08;;;;;;;3.37;1.73;;;7.20;57.20;;;;;;5034197;28;20999;-87
2021/12/08 03:45:39;;;;;;;2.47;2.20;;;7.30;57.20;;;;;;5034302;28;20452;-86
2021/12/08 03:48:11;;;;;;;3.13;1.93;;;7.40;57.20;;;;;;5031027;28;21246;-86
2021/12/08 03:50:41;;;;;;;1.93;1.50;;;7.50;57.40;;;;;;5062466;28;20460;-87
2021/12/08 03:53:12;;;;;;;3.40;2.47;;;7.50;56.80;;;;;;5062038;28;20448;-87
2021/12/08 03:55:40;;;;;;;2.23;1.70;;;7.40;56.90;;;;;;5044303;28;20454;-87
2021/12/08 03:58:08;;;;;;;2.03;1.83;;;7.40;56.80;;;;;;5030253;28;20481;-87
2021/12/08 04:00:35;;;;;;;3.87;3.57;;;7.30;56.90;;;;;;5045177;28;20468;-87
2021/12/08 04:03:04;;;;;;;5.43;2.67;;;7.40;57.00;;;;;;5060257;28;20507;-87
2021/12/08 04:05:41;;;;;;;3.17;2.40;;;7.40;56.70;;;;;;5057920;28;20450;-87
2021/12/08 04:08:15;;;;;;;2.63;2.43;;;7.40;56.90;;;;;;5062596;28;20477;-88
2021/12/08 04:10:42;;;;;;;2.90;2.53;;;7.40;56.90;;;;;;5044014;28;20542;-87
2021/12/08 04:13:11;;;;;;;2.67;2.47;;;7.40;56.80;;;;;;5042023;28;20953;-87
2021/12/08 04:15:39;;;;;;;4.77;2.77;;;7.30;57.00;;;;;;5045636;28;20495;-87
2021/12/08 04:18:06;;;;;;;4.77;3.20;;;7.40;57.00;;;;;;5031465;28;20460;-87
2021/12/08 04:20:37;;;;;;;4.03;3.20;;;7.50;56.80;;;;;;5063633;28;20475;-87
2021/12/08 04:23:07;;;;;;;5.90;3.13;;;7.50;56.60;;;;;;5039142;28;20441;-87
2021/12/08 04:25:36;;;;;;;26.07;4.13;;;7.50;56.40;;;;;;5028846;28;20442;-87
2021/12/08 04:28:08;;;;;;;6.80;3.20;;;7.50;56.50;;;;;;5049679;28;20911;-87
2021/12/08 04:30:40;;;;;;;5.77;3.37;;;7.50;56.60;;;;;;5046209;28;20542;-87
2021/12/08 04:33:09;;;;;;;4.70;3.50;;;7.40;56.70;;;;;;5038293;28;20453;-87
2021/12/08 04:35:38;;;;;;;3.30;3.00;;;7.40;56.90;;;;;;5044085;28;20460;-84
2021/12/08 04:38:10;;;;;;;6.20;3.80;;;7.30;57.10;;;;;;5026816;28;20473;-89
2021/12/08 04:40:50;;;;;;;21.37;4.30;;;7.30;57.30;;;;;;5044957;28;20477;-88
2021/12/08 04:43:23;;;;;;;6.57;3.37;;;7.30;57.70;;;;;;5048322;28;20454;-87
2021/12/08 04:46:02;;;;;;;4.97;2.97;;;7.30;57.20;;;;;;5031039;28;20453;-89
2021/12/08 04:48:45;;;;;;;7.17;3.97;;;7.40;57.20;;;;;;5027438;28;20493;-85
2021/12/08 04:51:35;;;;;;;7.00;4.03;;;7.40;57.10;;;;;;5059682;28;20518;-88
2021/12/08 05:02:35;;;;;;;11.17;5.77;;;7.30;56.90;;;;;;5013919;28;20440;-87
2021/12/08 05:05:15;;;;;;;28.80;10.00;;;7.30;57.10;;;;;;5040700;28;20546;-87
2021/12/08 05:07:52;;;;;;;12.10;6.53;;;7.10;57.30;;;;;;5058025;28;20499;-87
2021/12/08 05:10:23;;;;;;;33.20;16.00;;;7.00;58.00;;;;;;5056996;28;20543;-87
2021/12/08 05:12:52;;;;;;;10.10;6.93;;;7.10;58.00;;;;;;5027779;28;20457;-87
2021/12/08 05:15:23;;;;;;;9.40;6.50;;;7.20;57.60;;;;;;5048180;28;20448;-86
2021/12/08 05:17:57;;;;;;;9.50;6.73;;;7.30;57.40;;;;;;5022677;28;20465;-87
2021/12/08 05:20:30;;;;;;;8.40;6.83;;;7.20;57.50;;;;;;5019431;28;20477;-87
2021/12/08 05:23:03;;;;;;;12.03;7.30;;;7.10;58.10;;;;;;5040058;28;20453;-86
2021/12/08 05:25:33;;;;;;;22.50;5.80;;;7.10;58.10;;;;;;5039550;28;20445;-86
2021/12/08 05:28:03;;;;;;;7.73;5.83;;;7.20;58.00;;;;;;5037274;28;20496;-87
2021/12/08 05:30:37;;;;;;;10.57;5.23;;;7.30;57.70;;;;;;5024570;28;20442;-86
2021/12/08 05:33:08;;;;;;;10.27;6.23;;;7.40;57.40;;;;;;5035594;28;20547;-86
2021/12/08 05:35:35;;;;;;;7.57;5.30;;;7.40;57.30;;;;;;5052062;28;20456;-86
2021/12/08 05:38:02;;;;;;;9.90;6.43;;;7.50;57.30;;;;;;5052520;28;20474;-86
2021/12/08 05:40:35;;;;;;;9.30;5.60;;;7.50;57.00;;;;;;5024024;28;20484;-87
2021/12/08 05:43:03;;;;;;;15.23;6.30;;;7.50;57.00;;;;;;5045387;28;20461;-86
2021/12/08 05:45:30;;;;;;;6.27;5.10;;;7.50;57.00;;;;;;5032245;28;20510;-85
2021/12/08 05:47:57;;;;;;;11.57;6.07;;;7.50;57.50;;;;;;5039569;28;20480;-86
2021/12/08 05:50:33;;;;;;;6.47;4.70;;;7.50;57.50;;;;;;5058473;28;20827;-88
2021/12/08 05:53:00;;;;;;;8.73;5.93;;;7.40;57.40;;;;;;5060105;28;20443;-86
2021/12/08 05:55:28;;;;;;;6.43;5.00;;;7.50;57.50;;;;;;5030154;28;20468;-86
2021/12/08 05:57:57;;;;;;;5.93;4.00;;;7.30;57.70;;;;;;5057407;28;21071;-86
2021/12/08 06:00:28;;;;;;;6.70;4.43;;;7.20;58.30;;;;;;5061198;28;20469;-86
2021/12/08 06:02:57;;;;;;;13.20;7.90;;;7.30;58.10;;;;;;5054840;28;20457;-87
2021/12/08 06:05:27;;;;;;;13.27;8.27;;;7.40;58.00;;;;;;5040194;28;20450;-86
2021/12/08 06:07:55;;;;;;;16.20;7.20;;;7.40;57.60;;;;;;5056492;28;20472;-86
2021/12/08 06:10:27;;;;;;;9.30;7.07;;;7.50;57.60;;;;;;5037498;28;20453;-86
2021/12/08 06:12:54;;;;;;;8.83;6.93;;;7.50;57.80;;;;;;5042300;28;20453;-86
2021/12/08 06:15:21;;;;;;;7.60;5.80;;;7.50;57.70;;;;;;5058387;28;20453;-86
2021/12/08 06:17:49;;;;;;;12.23;7.20;;;7.50;57.40;;;;;;5030325;28;20573;-86
2021/12/08 06:20:18;;;;;;;11.03;6.27;;;7.60;57.40;;;;;;5046262;28;20508;-86
2021/12/08 06:22:49;;;;;;;16.53;8.03;;;7.60;57.40;;;;;;5053940;28;20454;-88
2021/12/08 06:25:17;;;;;;;19.40;8.80;;;7.60;57.30;;;;;;5056468;28;20461;-86
2021/12/08 06:27:44;;;;;;;11.37;7.93;;;7.50;57.20;;;;;;5012132;28;20475;-86
2021/12/08 06:30:15;;;;;;;16.83;9.37;;;7.50;57.50;;;;;;5057484;28;20452;-86
2021/12/08 06:32:43;;;;;;;13.37;8.37;;;7.40;57.80;;;;;;5028522;28;21010;-87
2021/12/08 06:35:14;;;;;;;16.63;8.80;;;7.40;58.10;;;;;;5038046;28;20449;-83
2021/12/08 06:37:44;;;;;;;16.70;9.27;;;7.40;58.30;;;;;;5037141;28;20468;-86
2021/12/08 06:40:16;;;;;;;15.57;9.50;;;7.40;58.00;;;;;;5056268;28;20469;-86
2021/12/08 06:42:47;;;;;;;12.60;6.87;;;7.40;57.70;;;;;;5055225;28;20464;-86
2021/12/08 06:45:17;;;;;;;14.33;7.70;;;7.50;57.80;;;;;;5056520;28;20467;-86
2021/12/08 06:47:46;;;;;;;10.80;7.27;;;7.40;58.00;;;;;;5051783;28;21113;-84
2021/12/08 06:50:17;;;;;;;9.00;6.13;;;7.40;58.10;;;;;;5057591;28;20446;-87
2021/12/08 06:52:44;;;;;;;10.23;7.40;;;7.50;57.80;;;;;;5059187;28;20465;-85
2021/12/08 06:55:17;;;;;;;9.40;6.70;;;7.50;57.60;;;;;;5037810;28;21197;-86
2021/12/08 06:57:50;;;;;;;9.23;6.80;;;7.50;57.50;;;;;;5055175;28;20473;-86
2021/12/08 07:00:32;;;;;;;12.37;7.70;;;7.50;57.50;;;;;;5043093;28;20499;-87
2021/12/08 07:03:07;;;;;;;10.20;6.87;;;7.40;57.90;;;;;;5055900;28;20461;-87
2021/12/08 07:06:03;;;;;;;11.57;7.73;;;7.40;58.00;;;;;;5022781;28;20478;-86
2021/12/08 07:08:31;;;;;;;9.77;6.73;;;7.50;58.10;;;;;;5055361;28;21152;-87
2021/12/08 07:11:00;;;;;;;13.30;7.50;;;7.40;58.20;;;;;;5045872;28;20460;-86
2021/12/08 07:13:30;;;;;;;13.87;7.80;;;7.40;58.40;;;;;;5037408;28;20457;-87
2021/12/08 07:16:03;;;;;;;12.10;6.53;;;7.50;58.50;;;;;;5029041;28;20464;-87
2021/12/08 07:18:39;;;;;;;9.60;5.70;;;7.40;58.30;;;;;;5040920;28;20480;-86
2021/12/08 07:21:10;;;;;;;11.97;7.17;;;7.50;58.40;;;;;;5012101;28;20851;-87
2021/12/08 07:23:43;;;;;;;9.70;6.63;;;7.40;58.50;;;;;;5034934;28;20457;-86
2021/12/08 07:26:16;;;;;;;9.63;5.97;;;7.50;58.40;;;;;;5041982;28;20493;-86
2021/12/08 07:28:44;;;;;;;8.83;6.17;;;7.60;58.20;;;;;;5053795;28;20465;-86
2021/12/08 07:31:16;;;;;;;9.83;6.40;;;7.60;57.90;;;;;;5011111;28;20454;-86
2021/12/08 07:33:43;;;;;;;11.20;6.07;;;7.60;57.90;;;;;;5054781;28;20453;-87
2021/12/08 07:36:16;;;;;;;12.67;7.10;;;7.60;57.80;;;;;;5023470;28;20456;-86
2021/12/08 07:38:45;;;;;;;10.67;7.43;;;7.50;57.70;;;;;;5044236;28;20559;-86
2021/12/08 07:41:19;;;;;;;20.83;6.93;;;7.50;58.00;;;;;;5054270;28;20477;-86
2021/12/08 07:43:49;;;;;;;8.20;7.20;;;7.50;58.10;;;;;;5058421;28;20462;-86
2021/12/08 07:46:20;;;;;;;17.13;9.50;;;7.60;58.10;;;;;;5055035;28;20956;-86
2021/12/08 07:48:52;;;;;;;20.53;9.63;;;7.50;57.60;;;;;;5034976;28;20441;-86
2021/12/08 07:51:25;;;;;;;11.90;8.30;;;7.40;58.20;;;;;;5058639;28;20447;-87
2021/12/08 07:53:52;;;;;;;11.70;6.83;;;7.50;58.50;;;;;;5035938;28;20467;-86
2021/12/08 07:56:23;;;;;;;10.80;6.47;;;7.50;58.50;;;;;;5039171;28;20453;-87
2021/12/08 07:58:53;;;;;;;9.10;7.10;;;7.60;58.60;;;;;;5037245;28;20463;-87
2021/12/08 08:01:26;;;;;;;11.27;7.00;;;7.60;58.40;;;;;;5043611;28;20478;-85
2021/12/08 08:03:54;;;;;;;14.63;7.93;;;7.70;58.30;;;;;;5025515;28;20452;-87
2021/12/08 08:06:26;;;;;;;10.83;6.67;;;7.70;58.00;;;;;;5053025;28;20456;-84
2021/12/08 08:08:53;;;;;;;13.40;6.80;;;7.70;58.00;;;;;;5007712;28;20472;-87
2021/12/08 08:11:24;;;;;;;11.40;5.70;;;7.70;58.30;;;;;;5037024;28;20461;-87
2021/12/08 08:13:52;;;;;;;10.40;6.23;;;7.70;58.00;;;;;;5054492;28;20467;-87
2021/12/08 08:16:22;;;;;;;13.27;6.77;;;7.40;58.10;;;;;;5036981;28;20449;-87
2021/12/08 08:18:56;;;;;;;13.63;7.73;;;7.30;58.70;;;;;;5055987;28;20471;-88
2021/12/08 08:21:29;;;;;;;9.17;6.43;;;7.30;58.80;;;;;;5027025;28;20951;-87
2021/12/08 08:23:58;;;;;;;9.77;7.00;;;7.40;58.70;;;;;;5051847;28;20459;-86
2021/12/08 08:26:27;;;;;;;11.07;7.10;;;7.50;58.50;;;;;;5052805;28;20549;-87
2021/12/08 08:28:54;;;;;;;13.07;7.20;;;7.60;58.40;;;;;;5026639;28;20461;-87
2021/12/08 08:31:24;;;;;;;14.30;7.67;;;7.50;58.30;;;;;;5055652;28;20458;-85
2021/12/08 08:33:52;;;;;;;8.13;7.10;;;7.30;58.90;;;;;;5036903;28;20471;-87
2021/12/08 08:36:25;;;;;;;11.17;7.73;;;7.40;59.00;;;;;;5037540;28;20445;-86
2021/12/08 08:38:56;;;;;;;19.30;11.40;;;7.50;58.60;;;;;;5042754;28;20449;-86
2021/12/08 08:41:29;;;;;;;29.77;13.17;;;7.60;58.40;;;;;;5052612;28;20464;-87
2021/12/08 08:44:04;;;;;;;17.40;10.90;;;7.60;58.60;;;;;;5034728;28;21301;-86
2021/12/08 08:46:37;;;;;;;14.57;10.50;;;7.50;58.80;;;;;;5053598;28;20468;-86
2021/12/08 08:49:07;;;;;;;14.47;8.83;;;7.50;59.20;;;;;;5053144;28;20461;-87
2021/12/08 08:51:40;;;;;;;17.47;10.00;;;7.50;59.40;;;;;;5027775;28;20437;-84
2021/12/08 08:54:10;;;;;;;17.40;10.27;;;7.50;59.30;;;;;;5025015;28;20499;-86
2021/12/08 08:56:42;;;;;;;17.63;9.87;;;7.70;59.10;;;;;;5026033;28;20994;-86
2021/12/08 08:59:13;;;;;;;15.80;8.50;;;7.70;59.30;;;;;;5035633;28;20456;-87
2021/12/08 09:01:43;;;;;;;12.90;8.13;;;7.60;59.40;;;;;;5035559;28;21301;-86
2021/12/08 09:04:13;;;;;;;14.47;8.77;;;7.50;59.30;;;;;;5025640;28;20439;-86
2021/12/08 09:06:44;;;;;;;14.80;9.60;;;7.50;59.40;;;;;;5036590;28;20463;-87
2021/12/08 09:09:15;;;;;;;32.10;13.73;;;7.40;59.80;;;;;;5017600;28;20964;-87
2021/12/08 09:11:47;;;;;;;19.10;10.83;;;7.30;59.90;;;;;;5041231;28;20457;-87
2021/12/08 09:14:18;;;;;;;16.60;9.90;;;7.50;59.60;;;;;;5054960;28;21167;-87
2021/12/08 09:16:50;;;;;;;13.23;8.83;;;7.60;59.20;;;;;;5035286;28;20472;-86
2021/12/08 09:19:21;;;;;;;14.37;9.80;;;7.80;58.90;;;;;;5034348;28;20584;-86
2021/12/08 09:22:00;;;;;;;12.77;8.67;;;7.80;58.60;;;;;;5053642;28;20514;-87
2021/12/08 09:24:36;;;;;;;24.63;12.30;;;7.80;58.70;;;;;;5040834;28;20452;-86
2021/12/08 09:27:08;;;;;;;14.57;11.07;;;7.80;58.60;;;;;;5035981;28;20474;-86
2021/12/08 09:29:43;;;;;;;25.83;12.90;;;7.80;58.50;;;;;;5055616;28;20810;-87
2021/12/08 09:32:16;;;;;;;14.60;8.90;;;7.80;58.40;;;;;;5034416;28;20505;-87
2021/12/08 09:34:49;;;;;;;13.13;9.10;;;7.90;58.50;;;;;;5056505;28;20457;-87
2021/12/08 09:37:19;;;;;;;16.33;8.30;;;8.00;58.40;;;;;;5054357;28;20526;-87
2021/12/08 09:39:49;;;;;;;11.80;7.90;;;8.00;58.20;;;;;;5023108;28;20583;-87
2021/12/08 09:42:21;;;;;;;11.30;8.10;;;8.00;58.30;;;;;;5019486;28;20484;-86
2021/12/08 09:44:51;;;;;;;10.17;7.60;;;8.10;58.40;;;;;;5026912;28;20992;-88
2021/12/08 09:47:19;;;;;;;12.20;8.23;;;8.10;58.20;;;;;;5039233;28;20473;-86
2021/12/08 09:49:47;;;;;;;16.80;10.40;;;8.20;58.10;;;;;;5051409;28;20441;-87
2021/12/08 09:52:16;;;;;;;15.90;9.73;;;8.20;58.10;;;;;;5051873;28;21024;-87
2021/12/08 09:54:43;;;;;;;17.60;10.67;;;8.20;58.10;;;;;;5053388;28;20580;-87
2021/12/08 09:57:13;;;;;;;16.90;9.83;;;8.30;58.10;;;;;;5034757;28;20476;-87
2021/12/08 09:59:46;;;;;;;15.97;10.10;;;8.20;58.00;;;;;;5038081;28;20555;-87
2021/12/08 10:02:18;;;;;;;13.97;10.20;;;8.10;58.40;;;;;;5049481;28;20477;-86
2021/12/08 10:04:45;;;;;;;17.37;10.77;;;7.90;58.70;;;;;;5054714;28;20506;-87
2021/12/08 10:07:13;;;;;;;15.03;9.70;;;8.00;58.50;;;;;;5036199;28;20472;-88
2021/12/08 10:09:40;;;;;;;14.00;9.27;;;8.00;58.30;;;;;;5028098;28;20997;-87
2021/12/08 10:12:08;;;;;;;21.53;9.90;;;8.10;58.30;;;;;;5034911;28;20851;-87
2021/12/08 10:14:35;;;;;;;19.73;11.30;;;8.20;58.40;;;;;;5036590;28;20444;-86
2021/12/08 10:17:04;;;;;;;16.23;10.70;;;8.10;58.40;;;;;;5020188;28;20492;-86
2021/12/08 10:19:31;;;;;;;14.90;10.20;;;8.10;58.50;;;;;;5002458;28;20458;-86
2021/12/08 10:21:59;;;;;;;15.17;9.17;;;8.10;58.60;;;;;;5037863;28;20487;-86
2021/12/08 10:24:29;;;;;;;13.50;9.40;;;8.20;58.60;;;;;;5034914;28;20483;-86
2021/12/08 10:27:04;;;;;;;17.90;10.70;;;8.10;58.80;;;;;;5039237;28;20568;-86
2021/12/08 10:29:32;;;;;;;18.37;10.07;;;8.10;58.80;;;;;;5040744;28;20448;-86
2021/12/08 10:32:01;;;;;;;15.27;10.20;;;8.10;58.80;;;;;;5056399;28;21021;-86
2021/12/08 10:34:35;;;;;;;20.93;14.10;;;8.20;58.80;;;;;;5042937;28;20521;-87
2021/12/08 10:37:07;;;;;;;35.57;19.93;;;8.10;58.70;;;;;;5036994;28;20874;-85
2021/12/08 10:39:36;;;;;;;29.80;15.93;;;7.90;58.90;;;;;;5041882;28;20507;-86
2021/12/08 10:42:14;;;;;;;24.17;14.50;;;7.90;59.20;;;;;;5045396;28;20484;-86
2021/12/08 10:44:47;;;;;;;18.10;12.50;;;8.00;59.30;;;;;;5013635;28;20522;-86
2021/12/08 10:47:19;;;;;;;21.40;12.53;;;8.00;59.10;;;;;;5009773;28;20476;-86
2021/12/08 10:55:24;;;;;;;18.53;10.87;;;7.90;59.40;;;;;;5030831;28;20929;-87
2021/12/08 10:57:54;;;;;;;21.03;10.67;;;8.00;58.80;;;;;;5055104;28;20481;-87
2021/12/08 11:00:25;;;;;;;20.67;12.57;;;8.10;58.70;;;;;;5053601;28;20470;-86
2021/12/08 11:02:53;;;;;;;23.33;14.50;;;8.20;58.60;;;;;;5058697;28;20477;-87
2021/12/08 11:05:38;;;;;;;24.37;13.33;;;8.10;58.60;;;;;;5026352;28;20460;-85
2021/12/08 11:08:12;;;;;;;26.37;13.83;;;8.20;59.00;;;;;;5038961;28;20472;-86
2021/12/08 11:10:45;;;;;;;21.30;12.03;;;8.20;58.90;;;;;;5036592;28;20488;-86
2021/12/08 11:13:13;;;;;;;27.43;15.73;;;8.20;59.00;;;;;;5042619;28;20944;-87
2021/12/08 11:15:41;;;;;;;25.87;14.87;;;8.20;59.00;;;;;;5037730;28;21485;-86
2021/12/08 11:18:11;;;;;;;31.70;16.17;;;8.30;59.10;;;;;;5040074;28;20472;-87
2021/12/08 11:20:46;;;;;;;22.30;13.70;;;8.30;58.90;;;;;;5038274;28;20530;-86
2021/12/08 11:23:17;;;;;;;25.50;15.70;;;8.30;58.90;;;;;;5046185;28;20488;-88
2021/12/08 11:25:46;;;;;;;26.03;13.93;;;8.20;59.20;;;;;;5037594;28;20464;-87
2021/12/08 11:28:29;;;;;;;22.87;12.40;;;8.20;59.40;;;;;;5028928;28;20465;-87
2021/12/08 11:31:02;;;;;;;17.80;9.97;;;8.30;59.30;;;;;;5039258;28;20470;-87
2021/12/08 11:33:29;;;;;;;31.90;12.30;;;8.40;59.20;;;;;;5056016;28;20457;-87
2021/12/08 11:36:13;;;;;;;20.43;12.60;;;8.50;58.90;;;;;;5041437;28;20454;-86
2021/12/08 11:38:41;;;;;;;23.10;13.60;;;8.30;59.00;;;;;;5037153;28;21093;-84
2021/12/08 11:41:35;;;;;;;19.33;11.10;;;8.30;59.40;;;;;;5055311;28;20530;-87
2021/12/08 11:44:05;;;;;;;19.17;10.97;;;8.30;59.30;;;;;;5036907;28;20467;-87
2021/12/08 11:46:38;;;;;;;21.63;11.33;;;8.40;59.10;;;;;;5059057;28;20473;-87
2021/12/08 11:49:07;;;;;;;16.43;10.57;;;8.60;58.90;;;;;;5043199;28;20460;-87
2021/12/08 11:51:51;;;;;;;18.77;11.43;;;8.60;58.40;;;;;;5038335;28;20512;-88
2021/12/08 11:54:37;;;;;;;20.27;12.57;;;8.50;58.50;;;;;;5059291;28;20507;-87
2021/12/08 11:57:14;;;;;;;23.20;13.43;;;8.50;58.50;;;;;;5019279;28;20465;-87
2021/12/08 11:59:50;;;;;;;16.00;12.50;;;8.50;58.60;;;;;;5040958;28;20460;-86
2021/12/08 12:02:20;;;;;;;16.83;11.80;;;8.40;59.10;;;;;;5053712;28;20472;-87
2021/12/08 12:04:48;;;;;;;22.23;12.43;;;8.40;58.90;;;;;;5027821;28;20528;-87
2021/12/08 12:07:17;;;;;;;21.33;12.27;;;8.40;58.90;;;;;;5029957;28;20476;-87
2021/12/08 12:09:45;;;;;;;20.50;11.80;;;8.40;59.10;;;;;;5022536;28;20457;-86
2021/12/08 12:12:12;;;;;;;26.97;16.73;;;8.40;58.90;;;;;;5023027;28;20450;-87
2021/12/08 12:14:39;;;;;;;31.47;16.73;;;8.30;59.30;;;;;;5054539;28;20465;-86
2021/12/08 12:17:06;;;;;;;26.23;14.03;;;8.30;59.60;;;;;;5035053;28;20472;-87
2021/12/08 12:19:38;;;;;;;19.90;12.83;;;8.40;59.20;;;;;;5056722;28;20461;-87
2021/12/08 12:22:20;;;;;;;21.97;13.27;;;8.40;59.10;;;;;;5039553;28;20480;-86
2021/12/08 12:25:07;;;;;;;20.33;13.73;;;8.40;59.20;;;;;;5036951;28;20468;-86
2021/12/08 12:27:42;;;;;;;25.03;15.90;;;8.50;59.30;;;;;;5055290;28;20473;-87
2021/12/08 12:30:15;;;;;;;26.67;16.40;;;8.60;59.20;;;;;;5055178;28;20459;-87
2021/12/08 12:32:47;;;;;;;26.97;16.10;;;8.60;59.60;;;;;;5036397;28;20819;-88
2021/12/08 12:35:18;;;;;;;24.63;14.37;;;8.70;59.00;;;;;;5037396;28;21313;-88
2021/12/08 12:37:48;;;;;;;27.60;15.47;;;8.70;58.80;;;;;;5035662;28;21046;-87
2021/12/08 12:40:18;;;;;;;22.80;13.40;;;8.80;58.80;;;;;;5038215;28;20967;-89
2021/12/08 12:42:51;;;;;;;17.87;12.20;;;8.90;58.60;;;;;;5035449;28;21322;-87
2021/12/08 12:45:19;;;;;;;23.43;13.70;;;8.80;58.50;;;;;;5041393;28;20897;-88
2021/12/08 12:48:09;;;;;;;19.10;10.70;;;8.80;58.50;;;;;;5019087;28;20693;-87
2021/12/08 12:50:58;;;;;;;22.30;12.30;;;8.80;58.70;;;;;;5037786;28;24248;-88
2021/12/08 12:53:49;;;;;;;22.47;12.63;;;8.70;58.70;;;;;;5041608;28;20532;-88
2021/12/08 12:56:20;;;;;;;20.83;13.10;;;8.70;58.70;;;;;;5022339;28;20457;-86
2021/12/08 12:58:50;;;;;;;21.50;11.40;;;8.70;58.70;;;;;;5023352;28;20480;-87
2021/12/08 13:01:26;;;;;;;24.53;12.77;;;8.70;59.00;;;;;;5038064;28;20444;-87
2021/12/08 13:03:56;;;;;;;27.20;12.93;;;8.70;58.80;;;;;;5041120;28;20445;-87
2021/12/08 13:06:45;;;;;;;25.57;13.13;;;8.70;58.70;;;;;;5057211;28;20445;-87
2021/12/08 13:09:41;;;;;;;19.97;13.17;;;8.70;58.70;;;;;;5022803;28;20445;-87
2021/12/08 13:12:11;;;;;;;25.90;13.80;;;8.70;58.60;;;;;;5058101;28;20447;-86
2021/12/08 13:14:38;;;;;;;24.07;13.27;;;8.80;58.70;;;;;;5037845;28;20544;-87
2021/12/08 13:17:15;;;;;;;19.63;11.47;;;8.80;58.60;;;;;;5022245;28;21206;-87
2021/12/08 13:19:44;;;;;;;21.47;13.23;;;8.80;58.50;;;;;;5054401;28;20862;-86
2021/12/08 13:22:47;;;;;;;23.77;12.90;;;8.80;58.50;;;;;;5057853;28;20464;-87
2021/12/08 13:25:57;;;;;;;28.77;15.33;;;8.80;58.40;;;;;;5026157;28;20936;-87
2021/12/08 13:28:39;;;;;;;22.57;13.20;;;8.80;58.40;;;;;;5043825;28;20504;-86
2021/12/08 13:31:12;;;;;;;25.83;14.10;;;8.70;58.30;;;;;;5020509;28;20478;-88
2021/12/08 13:33:42;;;;;;;24.13;12.50;;;8.70;58.20;;;;;;5025390;28;20502;-86
2021/12/08 13:36:43;;;;;;;25.57;15.17;;;8.70;58.40;;;;;;5037246;28;21219;-86
2021/12/08 13:39:21;;;;;;;21.93;13.83;;;8.60;58.40;;;;;;5011187;28;20459;-86
2021/12/08 13:42:10;;;;;;;28.43;15.77;;;8.70;58.60;;;;;;5053351;28;20476;-87